Juneau International Airport
PAJN : now visible

Airfield :











YOU CAN JOIN US ON...

 
LOGIN :

Register | Disclaimer

   EN    FR    IT 

 









Legend :    VFR   Marginal VFR   IFR   Intensive IFR   Very Intensive IFR
Visi :
Ceiling :
>= 8 km
>= 3000ft
5 to 8 km
1000 to 3000 ft
1500m to 5 km
500 to 1000 ft
800 to 1500m
200 to 500 ft
< 800m
< 200 ft
Symbols :   Thunderstorms  Fog  Heavy snow  Heavy precipitations  Wind > 20 kt






- Airport Elevation : 21 ft
- IATA code : JNU


PAJN - Juneau International

CURRENT METAR :
  • 291953Z 14004KT 10SM FEW010 SCT024 OVC050 04/02 A2949 RMK AO2 RAB16E39 SLP985 VIS LWR S PRESENT WX VCSH N-E-S P0000 T00390022 $

EXPIRED METARs :
  • 291853Z 12009KT 10SM SCT013 SCT028 OVC050 04/02 A2949 RMK AO2 RAB01E34 SLP987 VIS LWR SE-S PRESENT WX VCSH E-S P0000 T00390022 $
  • 291753Z 13009KT 10SM FEW013 BKN035 OVC050 04/02 A2949 RMK AO2 RAB1656E29 PRESRR SLP987 VIS LWR S-SW PRESENT WX VCSH E-SW P0000 60000 T00390022 10039 20033 53009 $

TAF PAJN
Valid from the 29 at 18:00 until the 30 at 18:00 UTC


291739Z 2918/3018 12008KT P6SM -SHRA SCT017 BKN035 OVC060
FM300000 11010KT 5SM -SHRA BKN015 OVC035
FM301200 09007KT P6SM -SHSN SCT025 OVC050
PAZA FIR / North America



MET'MAP, your aeronautical weather chart ! - Copyright ORBIFLY December 2007 - Disclaimer

ORBIFLY MET'MAP TEAM :

Programming & Development : Alexandra Zaïnal
Concept & original design : Baudouin d'Aumeries
Assistance for programming : Marc-Olivier Méhu
Technical & hardware support : Manuel Goepfert

Contact : metmap@orbifly.com




SOURCES & CREDITS :

   NOAA       Earth
Advisory